Time;durP1;ratioP1;P1;durP2;ratioP2;P2;SDS_P1;SDS_P2;PMS_P1;PMS_P2;Temp;Humidity;BMP_temperature;BMP_pressure;BME280_temperature;BME280_humidity;BME280_pressure;Samples;Min_cycle;Max_cycle;Signal;HPM_P1;HPM_P2
2022/06/01 00:01:29;;;;;;;4.60;2.05;;;11.60;99.90;;;;;;4994841;28;20032;-57
2022/06/01 00:03:55;;;;;;;4.35;1.75;;;11.50;99.90;;;;;;4994644;28;20438;-57
2022/06/01 00:06:21;;;;;;;5.28;1.90;;;11.50;99.90;;;;;;4994478;28;20031;-56
2022/06/01 00:08:47;;;;;;;6.20;1.90;;;11.40;99.90;;;;;;4994735;28;20162;-57
2022/06/01 00:11:13;;;;;;;4.93;1.60;;;11.40;99.90;;;;;;4994760;28;20080;-57
2022/06/01 00:13:41;;;;;;;5.93;2.10;;;11.30;99.90;;;;;;4994483;28;20046;-56
2022/06/01 00:16:07;;;;;;;6.57;1.92;;;11.30;99.90;;;;;;4994415;28;20026;-57
2022/06/01 00:18:34;;;;;;;5.40;1.90;;;11.20;99.90;;;;;;4992808;28;20431;-56
2022/06/01 00:21:00;;;;;;;4.03;2.05;;;11.10;99.90;;;;;;4994162;28;20031;-57
2022/06/01 00:23:25;;;;;;;6.75;2.00;;;11.10;99.90;;;;;;4993382;28;20038;-56
2022/06/01 00:25:51;;;;;;;5.05;2.05;;;11.00;99.90;;;;;;4994176;28;20034;-57
2022/06/01 00:28:17;;;;;;;6.15;2.17;;;10.90;99.90;;;;;;4994450;28;20037;-56
2022/06/01 00:30:43;;;;;;;5.13;1.73;;;10.90;99.90;;;;;;4993722;28;20033;-57
2022/06/01 00:33:09;;;;;;;3.28;1.77;;;10.80;99.90;;;;;;4994062;28;20041;-57
2022/06/01 00:35:35;;;;;;;5.68;1.95;;;10.80;99.90;;;;;;4991443;28;20537;-57
2022/06/01 00:38:01;;;;;;;4.07;2.25;;;10.80;99.90;;;;;;4993834;28;20031;-56
2022/06/01 00:40:28;;;;;;;5.10;2.03;;;10.60;99.90;;;;;;4993907;28;20088;-58
2022/06/01 00:43:00;;;;;;;4.25;2.03;;;10.50;99.90;;;;;;4992811;28;20078;-56
2022/06/01 00:45:28;;;;;;;6.68;2.42;;;10.40;99.90;;;;;;4993102;28;20018;-57
2022/06/01 00:47:55;;;;;;;5.97;2.20;;;10.30;99.90;;;;;;4993137;28;20034;-57
2022/06/01 00:50:27;;;;;;;4.35;2.20;;;10.20;99.90;;;;;;4994079;28;20030;-56
2022/06/01 00:53:32;;;;;;;4.18;2.40;;;10.10;99.90;;;;;;4993313;28;20026;-57
2022/06/01 00:56:01;;;;;;;4.22;2.35;;;10.00;99.90;;;;;;4992128;28;20034;-57
2022/06/01 00:58:38;;;;;;;6.57;2.63;;;9.90;99.90;;;;;;4993411;28;20038;-57
2022/06/01 01:01:05;;;;;;;4.50;2.50;;;10.00;99.90;;;;;;4993157;28;20488;-56
2022/06/01 01:03:36;;;;;;;6.55;2.65;;;10.00;99.90;;;;;;4992963;28;20387;-58
2022/06/01 01:06:17;;;;;;;6.57;2.67;;;10.00;99.90;;;;;;4991482;28;20501;-56
2022/06/01 01:08:43;;;;;;;6.35;2.70;;;10.00;99.90;;;;;;4992939;28;20058;-57
2022/06/01 01:11:10;;;;;;;7.00;2.58;;;9.90;99.90;;;;;;4993845;28;20034;-56
2022/06/01 01:13:40;;;;;;;4.13;2.42;;;9.90;99.90;;;;;;4993649;28;20073;-58
2022/06/01 01:16:06;;;;;;;5.63;2.75;;;9.90;99.90;;;;;;4993103;28;20026;-56
2022/06/01 01:18:41;;;;;;;4.95;2.95;;;9.90;99.90;;;;;;4993145;28;20068;-57
2022/06/01 01:21:16;;;;;;;4.43;2.38;;;9.90;99.90;;;;;;4993296;28;20057;-58
2022/06/01 01:24:03;;;;;;;3.70;2.63;;;9.90;99.90;;;;;;4993167;28;20026;-56
2022/06/01 01:26:30;;;;;;;5.15;2.72;;;9.80;99.90;;;;;;4992992;28;20226;-57
2022/06/01 01:28:56;;;;;;;5.60;3.10;;;9.90;99.90;;;;;;4992973;28;20037;-57
2022/06/01 01:31:24;;;;;;;5.68;2.63;;;9.80;99.90;;;;;;4992779;28;20022;-57
2022/06/01 01:33:52;;;;;;;5.93;2.85;;;9.80;99.90;;;;;;4993070;28;20032;-57
2022/06/01 01:36:23;;;;;;;6.10;2.50;;;9.80;99.90;;;;;;4993066;28;20030;-57
2022/06/01 01:39:12;;;;;;;7.80;2.88;;;9.80;99.90;;;;;;4992519;28;20479;-57
2022/06/01 01:41:47;;;;;;;7.80;2.80;;;9.90;99.90;;;;;;4991683;28;20549;-57
2022/06/01 01:44:24;;;;;;;7.60;2.60;;;9.90;99.90;;;;;;4992917;28;20021;-57
2022/06/01 01:46:50;;;;;;;6.95;2.88;;;9.80;99.90;;;;;;4991294;28;20033;-57
2022/06/01 01:49:18;;;;;;;5.15;2.53;;;9.70;99.90;;;;;;4992558;28;20045;-57
2022/06/01 01:51:44;;;;;;;5.88;3.50;;;9.60;99.90;;;;;;4992946;28;20031;-56
2022/06/01 01:54:31;;;;;;;7.22;3.78;;;9.50;99.90;;;;;;4992582;28;20080;-57
2022/06/01 01:57:24;;;;;;;4.15;3.10;;;9.50;99.90;;;;;;4992770;28;20387;-57
2022/06/01 02:00:07;;;;;;;7.65;3.88;;;9.50;99.90;;;;;;4992624;28;20108;-57
2022/06/01 02:02:55;;;;;;;7.07;3.60;;;9.50;99.90;;;;;;4991469;28;20027;-57
2022/06/01 02:08:27;;;;;;;7.93;3.88;;;9.60;99.90;;;;;;4991871;28;20173;-57
2022/06/01 02:13:45;;;;;;;5.60;3.80;;;9.50;99.90;;;;;;4992480;28;20057;-57
2022/06/01 02:16:11;;;;;;;10.70;3.63;;;9.40;99.90;;;;;;4990741;28;20129;-57
2022/06/01 02:18:42;;;;;;;7.72;4.03;;;9.40;99.90;;;;;;4990573;28;20109;-56
2022/06/01 02:21:21;;;;;;;9.68;4.22;;;9.50;99.90;;;;;;4992425;28;20046;-61
2022/06/01 02:23:49;;;;;;;9.30;4.00;;;9.50;99.90;;;;;;4992799;28;20431;-57
2022/06/01 02:26:15;;;;;;;7.93;3.90;;;9.50;99.90;;;;;;4991976;28;20477;-57
2022/06/01 02:28:43;;;;;;;6.15;4.07;;;9.50;99.90;;;;;;4991977;28;20041;-57
2022/06/01 02:31:10;;;;;;;6.00;3.75;;;9.50;99.90;;;;;;4991882;28;20038;-57
2022/06/01 02:33:38;;;;;;;5.35;4.25;;;9.50;99.90;;;;;;4992778;28;20049;-57
2022/06/01 02:36:07;;;;;;;5.47;3.78;;;9.60;99.90;;;;;;4992218;28;20173;-56
2022/06/01 02:38:42;;;;;;;6.95;4.10;;;9.50;99.90;;;;;;4992006;28;20499;-56
2022/06/01 02:42:25;;;;;;;9.52;3.85;;;9.30;99.90;;;;;;4992281;28;20030;-56
2022/06/01 02:43:54;;;;;;;4.65;4.22;;;9.30;99.90;;;;;;4991440;28;20161;-57
2022/06/01 02:46:19;;;;;;;8.70;4.20;;;9.20;99.90;;;;;;4992213;28;20136;-56
2022/06/01 02:48:46;;;;;;;7.57;4.00;;;9.10;99.90;;;;;;4992051;28;20487;-57
2022/06/01 02:51:12;;;;;;;5.47;3.97;;;9.10;99.90;;;;;;4992019;28;20037;-56
2022/06/01 02:53:38;;;;;;;8.32;4.40;;;9.10;99.90;;;;;;4991824;28;20027;-57
2022/06/01 02:56:04;;;;;;;9.25;4.55;;;9.00;99.90;;;;;;4992121;28;20033;-56
2022/06/01 02:58:30;;;;;;;7.65;4.53;;;9.00;99.90;;;;;;4991397;28;20032;-57
2022/06/01 03:00:58;;;;;;;7.50;4.95;;;9.00;99.90;;;;;;4992043;28;20105;-56
2022/06/01 03:03:24;;;;;;;9.60;5.40;;;9.10;99.90;;;;;;4990210;28;20113;-56
2022/06/01 03:05:50;;;;;;;10.05;5.38;;;9.00;99.90;;;;;;4991619;28;20037;-57
2022/06/01 03:08:16;;;;;;;7.65;4.75;;;9.00;99.90;;;;;;4991896;28;20030;-57
2022/06/01 03:10:42;;;;;;;12.38;5.13;;;9.00;99.90;;;;;;4991898;28;20554;-57
2022/06/01 03:13:07;;;;;;;9.88;5.38;;;9.00;99.90;;;;;;4991654;28;20038;-56
2022/06/01 03:15:33;;;;;;;10.65;5.07;;;9.00;99.90;;;;;;4990597;28;20447;-57
2022/06/01 03:17:59;;;;;;;7.93;5.30;;;9.00;99.90;;;;;;4991561;28;20038;-56
2022/06/01 03:20:27;;;;;;;8.07;5.20;;;9.00;99.90;;;;;;4991919;28;20113;-56
2022/06/01 03:22:53;;;;;;;9.45;5.50;;;9.10;99.90;;;;;;4991789;28;20081;-57
2022/06/01 03:25:24;;;;;;;7.95;5.20;;;9.10;99.90;;;;;;4991906;28;20402;-58
2022/06/01 03:27:52;;;;;;;9.02;5.28;;;9.10;99.90;;;;;;4991686;28;20081;-56
2022/06/01 03:30:19;;;;;;;7.47;5.30;;;9.10;99.90;;;;;;4994572;28;20100;-58
2022/06/01 03:32:46;;;;;;;10.35;6.13;;;9.10;99.90;;;;;;4995097;28;20479;-56
2022/06/01 03:35:17;;;;;;;8.57;5.43;;;9.00;99.90;;;;;;4994872;28;20090;-57
2022/06/01 03:37:43;;;;;;;6.80;5.10;;;9.00;99.90;;;;;;4995587;28;20152;-57
2022/06/01 03:40:10;;;;;;;10.02;5.68;;;8.90;99.90;;;;;;4995183;28;20117;-57
2022/06/01 03:42:36;;;;;;;10.45;5.97;;;8.90;99.90;;;;;;4994992;28;20027;-57
2022/06/01 03:47:48;;;;;;;11.27;5.22;;;8.90;99.90;;;;;;4994409;28;20446;-57
2022/06/01 03:50:14;;;;;;;7.13;5.25;;;8.90;99.90;;;;;;4994799;28;20026;-57
2022/06/01 03:52:39;;;;;;;11.82;6.03;;;8.90;99.90;;;;;;4994485;28;20109;-58
2022/06/01 03:55:08;;;;;;;10.43;5.93;;;8.70;99.90;;;;;;4994356;28;20527;-56
2022/06/01 03:57:34;;;;;;;10.57;5.97;;;8.80;99.90;;;;;;4994429;28;20026;-57
2022/06/01 04:00:00;;;;;;;13.32;5.57;;;8.70;99.90;;;;;;4994662;28;20034;-56
2022/06/01 04:02:26;;;;;;;10.00;6.38;;;8.70;99.90;;;;;;4994951;28;20080;-57
2022/06/01 04:04:52;;;;;;;11.38;6.40;;;8.70;99.90;;;;;;4993910;28;20033;-56
2022/06/01 04:07:18;;;;;;;9.13;7.07;;;8.80;99.90;;;;;;4993770;28;20037;-56
2022/06/01 04:09:45;;;;;;;14.68;8.50;;;8.90;99.90;;;;;;4992923;28;20030;-56
2022/06/01 04:12:10;;;;;;;12.95;7.60;;;8.80;99.90;;;;;;4992721;28;20033;-56
2022/06/01 04:14:36;;;;;;;8.27;5.95;;;8.80;99.90;;;;;;4994029;28;20128;-56
2022/06/01 04:17:02;;;;;;;11.93;6.03;;;8.90;99.90;;;;;;4993840;28;20034;-56
2022/06/01 04:19:27;;;;;;;11.13;6.07;;;8.90;99.90;;;;;;4993914;28;20050;-56
2022/06/01 04:21:54;;;;;;;9.82;6.20;;;8.90;99.90;;;;;;4993849;28;20102;-56
2022/06/01 04:24:25;;;;;;;12.07;6.75;;;8.90;99.90;;;;;;4993382;28;20061;-56
2022/06/01 04:26:51;;;;;;;8.73;6.53;;;9.00;99.90;;;;;;4993851;28;20472;-57
2022/06/01 04:29:16;;;;;;;11.90;6.55;;;9.00;99.90;;;;;;4993626;28;20125;-57
2022/06/01 04:31:43;;;;;;;10.88;6.35;;;9.10;99.90;;;;;;4993788;28;20106;-57
2022/06/01 04:34:09;;;;;;;10.63;6.88;;;9.10;99.90;;;;;;4993639;28;20038;-57
2022/06/01 04:36:35;;;;;;;10.35;5.85;;;9.10;99.90;;;;;;4992359;28;20029;-57
2022/06/01 04:39:00;;;;;;;8.82;5.88;;;9.10;99.90;;;;;;4993695;28;20018;-56
2022/06/01 04:41:26;;;;;;;10.35;6.38;;;9.20;99.90;;;;;;4993606;28;20113;-56
2022/06/01 04:43:51;;;;;;;7.78;6.28;;;9.20;99.90;;;;;;4993264;28;20022;-57
2022/06/01 04:46:17;;;;;;;16.52;7.00;;;9.40;99.90;;;;;;4993357;28;20026;-56
2022/06/01 04:48:43;;;;;;;10.40;6.45;;;9.40;99.90;;;;;;4992982;28;20041;-57
2022/06/01 04:51:08;;;;;;;9.95;5.85;;;9.60;99.90;;;;;;4993931;28;20471;-56
2022/06/01 04:53:34;;;;;;;14.65;6.28;;;9.60;99.90;;;;;;4993759;28;20112;-56
2022/06/01 04:56:00;;;;;;;8.38;6.38;;;9.40;99.90;;;;;;4993066;28;20116;-57
2022/06/01 04:58:25;;;;;;;10.32;5.95;;;9.40;99.90;;;;;;4993066;28;20086;-56
2022/06/01 05:00:51;;;;;;;8.55;6.22;;;9.50;99.90;;;;;;4975750;28;20278;-57
2022/06/01 05:03:17;;;;;;;10.43;6.70;;;9.70;99.90;;;;;;4992783;28;20390;-57
2022/06/01 05:05:42;;;;;;;10.80;6.32;;;9.80;99.90;;;;;;4993157;28;20138;-56
2022/06/01 05:08:15;;;;;;;9.73;5.90;;;9.90;99.90;;;;;;4992985;28;20113;-57
2022/06/01 05:10:41;;;;;;;10.98;5.88;;;10.00;99.90;;;;;;4993036;28;20022;-57
2022/06/01 05:13:06;;;;;;;9.60;6.25;;;10.10;99.90;;;;;;4992464;28;20494;-57
2022/06/01 05:15:33;;;;;;;8.05;5.90;;;10.20;99.90;;;;;;4992723;28;20442;-57
2022/06/01 05:17:58;;;;;;;12.10;6.03;;;10.30;99.90;;;;;;4992269;28;20038;-57
2022/06/01 05:20:24;;;;;;;9.55;6.70;;;10.40;99.90;;;;;;4992882;28;20372;-57
2022/06/01 05:22:49;;;;;;;13.63;6.22;;;10.40;99.90;;;;;;4992677;28;20022;-57
2022/06/01 05:25:15;;;;;;;11.35;5.70;;;10.50;99.90;;;;;;4992735;28;20033;-56
2022/06/01 05:27:41;;;;;;;6.97;5.22;;;10.50;99.90;;;;;;4992408;28;20015;-57
2022/06/01 05:30:07;;;;;;;13.45;5.88;;;10.50;99.90;;;;;;4992696;28;20033;-57
2022/06/01 05:32:33;;;;;;;12.38;6.38;;;10.40;99.90;;;;;;4992786;28;20475;-57
2022/06/01 05:34:59;;;;;;;8.88;5.30;;;10.50;99.90;;;;;;4992734;28;20029;-56
2022/06/01 05:37:24;;;;;;;14.65;5.80;;;10.60;99.90;;;;;;4992087;28;20027;-56
2022/06/01 05:39:51;;;;;;;12.23;5.90;;;10.60;99.90;;;;;;4992518;28;20026;-56
2022/06/01 05:42:17;;;;;;;9.30;5.70;;;10.70;99.90;;;;;;4991196;28;20033;-56
2022/06/01 05:44:43;;;;;;;16.10;6.53;;;10.70;99.90;;;;;;4992217;28;20026;-57
2022/06/01 05:47:08;;;;;;;8.32;6.13;;;10.60;99.90;;;;;;4990954;28;20027;-57
2022/06/01 05:49:34;;;;;;;13.13;5.82;;;10.70;99.90;;;;;;4991183;28;20044;-57
2022/06/01 05:52:00;;;;;;;15.05;6.53;;;10.70;99.90;;;;;;4988176;28;20096;-57
2022/06/01 05:54:26;;;;;;;11.45;6.70;;;10.70;99.90;;;;;;4984932;28;20034;-57
2022/06/01 05:56:51;;;;;;;10.05;6.80;;;10.60;99.90;;;;;;4983423;28;20546;-57
2022/06/01 05:59:17;;;;;;;12.43;6.85;;;10.70;99.90;;;;;;4984462;28;20049;-57
2022/06/01 06:01:42;;;;;;;14.30;6.95;;;10.60;99.90;;;;;;4977669;28;20030;-57
2022/06/01 06:04:08;;;;;;;14.25;7.07;;;10.70;99.90;;;;;;4980640;28;20038;-57
2022/06/01 06:06:35;;;;;;;15.20;8.85;;;10.90;99.90;;;;;;4978265;28;20077;-57
2022/06/01 06:09:04;;;;;;;18.02;8.93;;;10.90;99.90;;;;;;4981208;28;20037;-58
2022/06/01 06:11:37;;;;;;;16.38;7.38;;;10.90;99.90;;;;;;4977227;28;20101;-57
2022/06/01 06:14:03;;;;;;;12.70;6.82;;;10.90;99.90;;;;;;4975964;28;20161;-57
2022/06/01 06:16:33;;;;;;;12.25;6.72;;;10.90;99.90;;;;;;4975299;28;20074;-58
2022/06/01 06:18:59;;;;;;;15.88;7.00;;;10.90;99.90;;;;;;4973852;28;20124;-56
2022/06/01 06:21:27;;;;;;;13.75;7.20;;;10.90;99.90;;;;;;4974238;28;20082;-56
2022/06/01 06:23:54;;;;;;;10.85;7.30;;;11.10;99.90;;;;;;4979546;28;20372;-57
2022/06/01 06:26:20;;;;;;;10.98;6.97;;;11.30;99.90;;;;;;4973319;28;20031;-57
2022/06/01 06:28:47;;;;;;;15.48;7.30;;;11.50;99.90;;;;;;4981381;28;20774;-56
2022/06/01 06:31:12;;;;;;;16.23;7.30;;;11.60;99.90;;;;;;4972771;28;20034;-57
2022/06/01 06:33:40;;;;;;;11.77;6.72;;;11.70;99.90;;;;;;4962466;28;20066;-57
2022/06/01 06:36:08;;;;;;;13.75;7.55;;;11.90;99.90;;;;;;4976918;28;20471;-57
2022/06/01 06:38:36;;;;;;;15.70;7.00;;;12.00;99.90;;;;;;4976672;28;20372;-56
2022/06/01 06:41:04;;;;;;;12.07;6.30;;;12.20;99.90;;;;;;4974888;28;20079;-56
2022/06/01 06:43:31;;;;;;;10.77;5.57;;;13.10;99.90;;;;;;4976641;28;20026;-57
2022/06/01 06:46:11;;;;;;;12.27;5.13;;;14.10;99.90;;;;;;4978655;28;20030;-57
2022/06/01 06:48:37;;;;;;;11.50;5.45;;;14.50;99.90;;;;;;4976287;28;20446;-56
2022/06/01 06:51:04;;;;;;;10.63;4.78;;;15.00;99.90;;;;;;4979368;28;20037;-56
2022/06/01 06:53:29;;;;;;;8.05;4.30;;;15.80;99.90;;;;;;4979017;28;20686;-56
2022/06/01 06:55:56;;;;;;;10.10;4.68;;;16.80;99.90;;;;;;4976951;28;20113;-56
2022/06/01 06:58:22;;;;;;;14.60;4.95;;;17.20;99.90;;;;;;4978275;28;20057;-56
2022/06/01 07:00:48;;;;;;;9.15;4.80;;;17.90;99.90;;;;;;4976566;28;20038;-56
2022/06/01 07:03:15;;;;;;;8.05;4.22;;;17.90;99.90;;;;;;4977132;28;20125;-56
2022/06/01 07:08:26;;;;;;;7.68;4.50;;;17.50;99.90;;;;;;4980387;28;20042;-56
2022/06/01 07:10:53;;;;;;;11.07;5.03;;;17.50;99.90;;;;;;4983252;28;20030;-57
2022/06/01 07:13:19;;;;;;;9.48;4.40;;;17.60;99.90;;;;;;4985088;28;20715;-57
2022/06/01 07:15:44;;;;;;;6.85;4.38;;;17.90;99.90;;;;;;4981808;28;20049;-57
2022/06/01 07:18:10;;;;;;;8.32;4.60;;;18.00;99.90;;;;;;4981022;28;20063;-56
2022/06/01 07:20:36;;;;;;;9.52;4.78;;;18.30;99.90;;;;;;4989110;28;20033;-58
2022/06/01 07:23:02;;;;;;;8.20;4.80;;;18.50;99.90;;;;;;4983062;28;20030;-57
2022/06/01 07:25:28;;;;;;;7.88;4.13;;;18.70;99.90;;;;;;4985944;28;20594;-58
2022/06/01 07:27:55;;;;;;;6.03;4.65;;;19.00;99.90;;;;;;4981475;28;20050;-57
2022/06/01 07:30:21;;;;;;;8.30;5.05;;;18.60;99.90;;;;;;4985341;28;20539;-58
2022/06/01 07:32:47;;;;;;;5.95;4.88;;;17.50;99.90;;;;;;4984223;28;20137;-58
2022/06/01 07:35:13;;;;;;;9.75;5.63;;;17.60;99.90;;;;;;4983415;28;20049;-58
2022/06/01 07:43:25;;;;;;;8.93;5.55;;;16.60;99.90;;;;;;4981725;28;20105;-58
2022/06/01 07:45:51;;;;;;;6.07;4.95;;;17.30;99.90;;;;;;4984572;28;20714;-58
2022/06/01 07:48:17;;;;;;;10.88;4.80;;;18.00;99.90;;;;;;4984123;28;20064;-58
2022/06/01 07:50:43;;;;;;;5.93;4.97;;;17.70;99.90;;;;;;4979816;28;20038;-58
2022/06/01 07:53:10;;;;;;;8.45;5.13;;;17.30;99.90;;;;;;4980428;28;20450;-57
2022/06/01 07:55:37;;;;;;;6.55;5.00;;;17.70;99.90;;;;;;4979336;28;20031;-57
2022/06/01 07:58:03;;;;;;;9.65;5.38;;;17.30;99.90;;;;;;4982000;28;20049;-57
2022/06/01 08:00:30;;;;;;;7.90;5.05;;;17.30;99.90;;;;;;4984838;28;20117;-58
2022/06/01 08:02:56;;;;;;;6.60;4.63;;;17.50;99.90;;;;;;4980288;28;20049;-58
2022/06/01 08:05:23;;;;;;;6.78;5.15;;;17.60;99.90;;;;;;4982079;28;20037;-58
2022/06/01 08:07:49;;;;;;;6.55;4.50;;;17.30;99.90;;;;;;4987459;28;20506;-58
2022/06/01 08:10:18;;;;;;;6.00;3.90;;;17.30;99.90;;;;;;4982183;28;20030;-57
2022/06/01 08:15:29;;;;;;;4.63;3.88;;;17.30;99.90;;;;;;4973821;28;20057;-58
2022/06/01 08:17:57;;;;;;;6.30;4.40;;;17.50;99.90;;;;;;4960722;28;20146;-58
2022/06/01 08:20:23;;;;;;;6.22;4.43;;;17.40;99.90;;;;;;4963475;28;20045;-58
2022/06/01 08:22:48;;;;;;;5.63;4.93;;;17.10;99.90;;;;;;4982638;28;20041;-58
2022/06/01 08:25:18;;;;;;;8.02;4.97;;;16.90;99.90;;;;;;4979047;28;20026;-58
2022/06/01 08:27:44;;;;;;;7.10;4.72;;;16.90;99.90;;;;;;4976376;28;20650;-58
2022/06/01 08:30:11;;;;;;;7.32;4.70;;;17.00;99.90;;;;;;4963779;28;20038;-58
2022/06/01 08:32:37;;;;;;;6.32;4.38;;;17.20;99.90;;;;;;4965291;28;20081;-58
2022/06/01 08:35:05;;;;;;;10.13;4.47;;;17.00;99.90;;;;;;4959811;28;20963;-58
2022/06/01 08:37:30;;;;;;;9.85;5.63;;;16.70;99.90;;;;;;4970998;28;20502;-57
2022/06/01 08:39:56;;;;;;;9.50;5.90;;;16.20;99.90;;;;;;4956840;28;20495;-60
2022/06/01 08:42:23;;;;;;;7.28;5.03;;;15.80;99.90;;;;;;4970709;28;20165;-57
2022/06/01 08:44:51;;;;;;;9.07;5.53;;;15.80;99.90;;;;;;4970698;28;20572;-58
2022/06/01 08:47:31;;;;;;;8.48;5.28;;;16.70;99.90;;;;;;4969942;28;20451;-58
2022/06/01 08:50:01;;;;;;;8.70;5.00;;;17.70;99.90;;;;;;4967893;28;20345;-59
2022/06/01 08:52:28;;;;;;;8.77;5.03;;;18.50;99.90;;;;;;4965646;28;20065;-59
2022/06/01 08:54:54;;;;;;;7.57;4.32;;;18.20;99.90;;;;;;4966374;28;20111;-58
2022/06/01 08:57:28;;;;;;;6.80;3.85;;;17.60;99.90;;;;;;4970476;28;20038;-58
2022/06/01 09:00:00;;;;;;;6.85;4.07;;;17.60;99.90;;;;;;4966585;28;20724;-58
2022/06/01 09:02:58;;;;;;;6.13;3.60;;;18.30;99.90;;;;;;4967982;28;20080;-58
2022/06/01 09:05:24;;;;;;;4.53;2.90;;;17.90;99.90;;;;;;4978203;28;20026;-59
2022/06/01 09:08:12;;;;;;;5.78;3.08;;;19.00;99.90;;;;;;4974672;28;20391;-57
2022/06/01 09:10:46;;;;;;;8.63;3.65;;;19.30;99.90;;;;;;4977488;28;20053;-59
2022/06/01 09:13:23;;;;;;;6.82;3.17;;;20.10;99.90;;;;;;4974030;28;20526;-58
2022/06/01 09:15:58;;;;;;;5.95;4.30;;;19.40;99.90;;;;;;4974096;28;20038;-59
2022/06/01 09:18:28;;;;;;;6.63;3.50;;;18.80;99.90;;;;;;4967321;28;20030;-58
2022/06/01 09:23:42;;;;;;;5.13;3.28;;;18.50;99.90;;;;;;4974562;28;20055;-58
2022/06/01 09:26:21;;;;;;;6.28;3.45;;;19.20;99.90;;;;;;4972703;28;20029;-58
2022/06/01 09:28:52;;;;;;;5.63;3.33;;;19.50;99.90;;;;;;4974830;28;20165;-58
2022/06/01 09:31:28;;;;;;;5.65;3.67;;;20.30;99.90;;;;;;4977274;28;20030;-59
2022/06/01 09:34:16;;;;;;;5.45;3.72;;;19.70;99.90;;;;;;4971124;28;20038;-58
2022/06/01 09:36:53;;;;;;;7.53;4.30;;;18.70;99.90;;;;;;4973133;28;20134;-58
2022/06/01 09:39:20;;;;;;;6.35;4.22;;;18.50;99.90;;;;;;4971644;28;20046;-58
2022/06/01 09:41:46;;;;;;;5.03;4.25;;;18.00;99.90;;;;;;4974645;28;20031;-58
2022/06/01 09:44:19;;;;;;;7.85;4.45;;;17.70;99.90;;;;;;4979567;28;20023;-59
2022/06/01 09:46:56;;;;;;;7.28;4.72;;;17.70;99.90;;;;;;4979308;28;20057;-59
2022/06/01 09:49:25;;;;;;;5.78;4.18;;;17.70;99.90;;;;;;4978931;28;20033;-58
2022/06/01 09:52:00;;;;;;;7.72;4.50;;;18.20;99.90;;;;;;4980598;28;20027;-58
2022/06/01 09:54:32;;;;;;;6.80;4.28;;;18.30;99.90;;;;;;4975819;28;20157;-59
2022/06/01 09:57:16;;;;;;;;;;;17.70;99.90;;;;;;4959955;28;20027;-58
2022/06/01 10:08:12;;;;;;;5.68;3.65;;;18.40;99.90;;;;;;4970543;28;20049;-58
2022/06/01 10:10:39;;;;;;;3.72;2.90;;;19.00;99.90;;;;;;4973052;28;20727;-57
2022/06/01 10:13:06;;;;;;;3.83;2.90;;;19.10;99.90;;;;;;4973005;28;20445;-57
2022/06/01 10:15:43;;;;;;;5.70;2.60;;;19.20;99.90;;;;;;4980042;28;20034;-57
2022/06/01 10:18:30;;;;;;;5.07;2.80;;;20.10;99.20;;;;;;4978610;28;20041;-58
2022/06/01 10:21:06;;;;;;;6.32;2.97;;;21.60;97.50;;;;;;4985175;28;20209;-58
2022/06/01 10:23:31;;;;;;;3.95;3.00;;;22.50;94.80;;;;;;4984853;28;20092;-59
2022/06/01 10:26:35;;;;;;;4.22;2.60;;;21.90;93.80;;;;;;4988221;28;20476;-58
2022/06/01 10:29:39;;;;;;;4.88;2.70;;;21.30;93.60;;;;;;4972055;28;20026;-58
2022/06/01 10:32:10;;;;;;;6.05;3.38;;;20.20;96.20;;;;;;4998937;28;20069;-57
2022/06/01 10:34:48;;;;;;;7.20;2.85;;;19.20;97.90;;;;;;4990975;28;20022;-58
2022/06/01 10:37:44;;;;;;;3.50;2.60;;;17.90;99.90;;;;;;4990952;28;20064;-57
2022/06/01 10:40:20;;;;;;;5.25;2.72;;;17.50;99.50;;;;;;4991201;28;20144;-58
2022/06/01 10:45:35;;;;;;;5.47;2.80;;;17.40;99.90;;;;;;4995135;28;20306;-57
2022/06/01 10:48:06;;;;;;;3.90;3.08;;;18.40;99.10;;;;;;4995076;28;20031;-57
2022/06/01 10:51:21;;;;;;;5.65;3.45;;;19.80;95.90;;;;;;4994731;28;20023;-57
2022/06/01 10:54:21;;;;;;;4.20;2.95;;;20.60;95.10;;;;;;4994177;28;20173;-57
2022/06/01 10:56:48;;;;;;;4.03;2.88;;;20.20;96.20;;;;;;4995661;28;20050;-57
2022/06/01 10:59:16;;;;;;;3.83;3.10;;;21.30;93.10;;;;;;4994479;28;20025;-57
2022/06/01 11:02:09;;;;;;;3.45;2.90;;;22.20;91.50;;;;;;4994514;28;20019;-57
2022/06/01 11:04:53;;;;;;;5.05;3.72;;;23.50;89.40;;;;;;4993397;28;20046;-57
2022/06/01 11:07:40;;;;;;;4.32;3.47;;;22.50;89.70;;;;;;4994495;28;20034;-57
2022/06/01 11:10:11;;;;;;;9.07;4.25;;;21.20;91.40;;;;;;4994944;28;20089;-57
2022/06/01 11:13:20;;;;;;;4.77;3.93;;;21.10;90.60;;;;;;4995011;28;20030;-57
2022/06/01 11:15:55;;;;;;;6.15;3.85;;;21.10;91.90;;;;;;4993399;28;20137;-58
2022/06/01 11:18:36;;;;;;;5.07;3.90;;;21.30;91.50;;;;;;4993899;28;20073;-58
2022/06/01 11:21:07;;;;;;;4.80;4.35;;;21.50;90.80;;;;;;4994776;28;20394;-58
2022/06/01 11:24:20;;;;;;;6.03;4.40;;;20.60;92.70;;;;;;4993345;28;20026;-58
2022/06/01 11:27:05;;;;;;;;;;;20.70;93.10;;;;;;4992989;28;20071;-57
2022/06/01 11:29:49;;;;;;;;;;;20.40;92.70;;;;;;4995142;28;20531;-57
2022/06/01 11:32:17;;;;;;;;;;;20.30;91.40;;;;;;5009998;28;20389;-57
2022/06/01 11:34:50;;;;;;;;;;;20.30;92.30;;;;;;4994759;28;19906;-57
2022/06/01 11:37:19;;;;;;;;;;;20.30;93.20;;;;;;4993069;28;19913;-57
2022/06/01 11:39:55;;;;;;;;;;;20.20;93.10;;;;;;4994212;28;19916;-57
2022/06/01 11:42:26;;;;;;;;;;;20.20;93.50;;;;;;4994935;28;20374;-57
2022/06/01 11:45:04;;;;;;;;;;;20.40;93.20;;;;;;4994660;28;19906;-58
2022/06/01 11:47:32;;;;;;;;;;;19.90;93.20;;;;;;4992707;28;20370;-57
2022/06/01 11:50:01;;;;;;;;;;;19.60;94.00;;;;;;4993280;28;19996;-57
2022/06/01 11:52:26;;;;;;;;;;;19.90;94.20;;;;;;4993405;28;19910;-57
2022/06/01 11:55:14;;;;;;;;;;;19.90;94.50;;;;;;4991297;28;20311;-57
2022/06/01 11:57:53;;;;;;;;;;;19.90;93.60;;;;;;4992701;28;20351;-58
2022/06/01 12:00:31;;;;;;;;;;;21.40;90.70;;;;;;4993823;28;19965;-58
2022/06/01 12:03:00;;;;;;;;;;;22.50;86.50;;;;;;4993936;28;20334;-58
2022/06/01 12:05:33;;;;;;;;;;;22.80;85.90;;;;;;4992391;28;19914;-58
2022/06/01 12:11:10;;;;;;;;;;;23.70;81.10;;;;;;4996596;28;19953;-58
2022/06/01 12:13:35;;;;;;;;;;;25.10;76.70;;;;;;4993572;28;19921;-58
2022/06/01 12:16:04;;;;;;;;;;;25.10;73.60;;;;;;4994532;28;19906;-58
2022/06/01 12:18:31;;;;;;;;;;;24.70;72.60;;;;;;4994221;28;19948;-58
2022/06/01 12:21:15;;;;;;;;;;;24.60;73.40;;;;;;4994201;28;19964;-58
2022/06/01 12:29:37;;;;;;;;;;;27.60;66.90;;;;;;4993861;28;20013;-58
2022/06/01 12:32:03;;;;;;;;;;;26.40;66.80;;;;;;4993749;28;19909;-58
2022/06/01 12:34:49;;;;;;;;;;;26.00;68.20;;;;;;4993606;28;19909;-57
2022/06/01 12:37:22;;;;;;;;;;;25.80;66.80;;;;;;4993608;28;20335;-57
2022/06/01 12:40:12;;;;;;;;;;;25.20;67.00;;;;;;4993300;28;19941;-57
2022/06/01 12:42:58;;;;;;;;;;;24.00;70.20;;;;;;4994240;28;20005;-57
2022/06/01 12:45:26;;;;;;;;;;;24.40;70.10;;;;;;4993723;28;19906;-58
2022/06/01 12:47:56;;;;;;;;;;;24.30;69.40;;;;;;4990844;28;20374;-58
2022/06/01 12:50:22;;;;;;;;;;;24.10;70.80;;;;;;4993363;28;19912;-57
2022/06/01 12:52:48;;;;;;;;;;;23.50;72.90;;;;;;4994103;28;19936;-57
2022/06/01 12:55:17;;;;;;;;;;;23.20;74.80;;;;;;4993208;28;20316;-59
2022/06/01 12:57:58;;;;;;;;;;;22.40;76.30;;;;;;4991989;28;20374;-58
2022/06/01 13:00:31;;;;;;;;;;;21.90;78.40;;;;;;4992906;28;19913;-57
2022/06/01 13:02:56;;;;;;;;;;;21.90;79.30;;;;;;4992612;28;20274;-57
2022/06/01 13:05:26;;;;;;;;;;;22.70;77.00;;;;;;4993916;28;19905;-58
2022/06/01 13:07:57;;;;;;;;;;;23.50;72.40;;;;;;4993640;28;19906;-58
2022/06/01 13:10:30;;;;;;;;;;;23.60;71.30;;;;;;4992611;28;19906;-57
2022/06/01 13:13:03;;;;;;;;;;;23.10;71.60;;;;;;4993031;28;19929;-58
2022/06/01 13:15:29;;;;;;;;;;;22.50;76.00;;;;;;4993420;28;19914;-58
2022/06/01 13:17:57;;;;;;;;;;;21.40;78.40;;;;;;4992989;28;19959;-58
2022/06/01 13:20:32;;;;;;;;;;;20.60;79.60;;;;;;4992570;28;19913;-58
2022/06/01 13:22:58;;;;;;;;;;;20.20;81.20;;;;;;4992850;28;19913;-58
2022/06/01 13:25:26;;;;;;;;;;;21.30;80.70;;;;;;4992782;28;19918;-58
2022/06/01 13:27:53;;;;;;;;;;;22.80;76.90;;;;;;4992613;28;20004;-58
2022/06/01 13:30:18;;;;;;;;;;;23.80;72.70;;;;;;4992980;28;19912;-58
2022/06/01 13:32:46;;;;;;;;;;;23.70;72.40;;;;;;4992862;28;19910;-58
2022/06/01 13:35:18;;;;;;;;;;;24.30;70.80;;;;;;4993229;28;19937;-58
2022/06/01 13:37:44;;;;;;;;;;;25.30;68.70;;;;;;4992685;28;20375;-58
2022/06/01 13:40:25;;;;;;;;;;;25.40;66.60;;;;;;4992370;28;19913;-58
2022/06/01 13:42:58;;;;;;;;;;;25.30;67.10;;;;;;4992638;28;19906;-59
2022/06/01 13:48:47;;;;;;;;;;;26.10;66.80;;;;;;4992408;28;19936;-58
2022/06/01 13:51:28;;;;;;;;;;;25.90;66.70;;;;;;4992324;28;19988;-58
2022/06/01 13:53:53;;;;;;;;;;;25.20;67.80;;;;;;4991841;28;19906;-58
2022/06/01 13:56:29;;;;;;;;;;;24.50;67.60;;;;;;4992183;28;20713;-58
2022/06/01 13:58:59;;;;;;;;;;;24.80;68.50;;;;;;4992403;28;20214;-58
2022/06/01 14:01:49;;;;;;;;;;;25.80;67.00;;;;;;4991551;28;19981;-58
2022/06/01 14:04:20;;;;;;;;;;;25.80;64.80;;;;;;4992105;28;19912;-58
2022/06/01 14:06:50;;;;;;;;;;;25.70;64.40;;;;;;4991923;28;19906;-58